sensor_id;sensor_type;location;lat;lon;timestamp;P1;durP1;ratioP1;P2;durP2;ratioP2
21754;SDS011;11039;50.028;19.938;2022-07-03T00:01:11;6.72;;;6.00;;
21754;SDS011;11039;50.028;19.938;2022-07-03T00:03:37;8.10;;;5.95;;
21754;SDS011;11039;50.028;19.938;2022-07-03T00:06:03;6.35;;;5.75;;
21754;SDS011;11039;50.028;19.938;2022-07-03T00:08:29;6.05;;;5.45;;
21754;SDS011;11039;50.028;19.938;2022-07-03T00:10:55;6.40;;;5.63;;
21754;SDS011;11039;50.028;19.938;2022-07-03T00:13:21;7.03;;;5.60;;
21754;SDS011;11039;50.028;19.938;2022-07-03T00:15:47;6.20;;;5.55;;
21754;SDS011;11039;50.028;19.938;2022-07-03T00:18:13;6.22;;;5.30;;
21754;SDS011;11039;50.028;19.938;2022-07-03T00:20:45;5.70;;;5.10;;
21754;SDS011;11039;50.028;19.938;2022-07-03T00:23:14;5.60;;;5.10;;
21754;SDS011;11039;50.028;19.938;2022-07-03T00:25:41;6.38;;;5.30;;
21754;SDS011;11039;50.028;19.938;2022-07-03T00:28:07;6.28;;;5.30;;
21754;SDS011;11039;50.028;19.938;2022-07-03T00:30:34;5.60;;;4.88;;
21754;SDS011;11039;50.028;19.938;2022-07-03T00:33:01;6.90;;;5.50;;
21754;SDS011;11039;50.028;19.938;2022-07-03T00:35:28;5.88;;;5.28;;
21754;SDS011;11039;50.028;19.938;2022-07-03T00:37:56;6.28;;;5.43;;
21754;SDS011;11039;50.028;19.938;2022-07-03T00:40:22;5.82;;;5.22;;
21754;SDS011;11039;50.028;19.938;2022-07-03T00:42:49;7.95;;;5.45;;
21754;SDS011;11039;50.028;19.938;2022-07-03T00:45:21;6.10;;;5.03;;
21754;SDS011;11039;50.028;19.938;2022-07-03T00:47:47;5.15;;;4.65;;
21754;SDS011;11039;50.028;19.938;2022-07-03T00:50:14;6.03;;;5.00;;
21754;SDS011;11039;50.028;19.938;2022-07-03T00:52:46;5.28;;;4.78;;
21754;SDS011;11039;50.028;19.938;2022-07-03T00:55:16;7.35;;;5.13;;
21754;SDS011;11039;50.028;19.938;2022-07-03T00:57:46;6.22;;;5.63;;
21754;SDS011;11039;50.028;19.938;2022-07-03T01:00:13;7.40;;;5.85;;
21754;SDS011;11039;50.028;19.938;2022-07-03T01:05:27;6.55;;;5.60;;
21754;SDS011;11039;50.028;19.938;2022-07-03T01:08:02;9.48;;;5.80;;
21754;SDS011;11039;50.028;19.938;2022-07-03T01:15:48;5.97;;;5.38;;
21754;SDS011;11039;50.028;19.938;2022-07-03T01:18:27;6.50;;;5.80;;
21754;SDS011;11039;50.028;19.938;2022-07-03T01:20:57;6.80;;;5.35;;
21754;SDS011;11039;50.028;19.938;2022-07-03T01:23:38;6.32;;;5.03;;
21754;SDS011;11039;50.028;19.938;2022-07-03T01:26:09;6.30;;;5.38;;
21754;SDS011;11039;50.028;19.938;2022-07-03T01:28:36;5.85;;;5.25;;
21754;SDS011;11039;50.028;19.938;2022-07-03T01:31:02;6.88;;;5.53;;
21754;SDS011;11039;50.028;19.938;2022-07-03T01:33:31;6.95;;;5.18;;
21754;SDS011;11039;50.028;19.938;2022-07-03T01:36:07;6.70;;;5.03;;
21754;SDS011;11039;50.028;19.938;2022-07-03T01:38:34;6.68;;;5.65;;
21754;SDS011;11039;50.028;19.938;2022-07-03T01:41:02;6.95;;;5.57;;
21754;SDS011;11039;50.028;19.938;2022-07-03T01:43:28;7.43;;;5.70;;
21754;SDS011;11039;50.028;19.938;2022-07-03T01:45:56;6.15;;;5.40;;
21754;SDS011;11039;50.028;19.938;2022-07-03T01:48:23;7.00;;;5.55;;
21754;SDS011;11039;50.028;19.938;2022-07-03T01:50:50;6.28;;;5.40;;
21754;SDS011;11039;50.028;19.938;2022-07-03T01:53:17;7.35;;;5.57;;
21754;SDS011;11039;50.028;19.938;2022-07-03T01:55:43;8.70;;;6.35;;
21754;SDS011;11039;50.028;19.938;2022-07-03T01:58:09;8.07;;;6.50;;
21754;SDS011;11039;50.028;19.938;2022-07-03T02:00:40;9.20;;;6.40;;
21754;SDS011;11039;50.028;19.938;2022-07-03T02:03:07;8.10;;;6.80;;
21754;SDS011;11039;50.028;19.938;2022-07-03T02:05:43;10.75;;;7.50;;
21754;SDS011;11039;50.028;19.938;2022-07-03T02:13:23;8.15;;;7.32;;
21754;SDS011;11039;50.028;19.938;2022-07-03T02:15:50;10.98;;;7.40;;
21754;SDS011;11039;50.028;19.938;2022-07-03T02:21:10;8.15;;;6.45;;
21754;SDS011;11039;50.028;19.938;2022-07-03T02:23:42;8.50;;;7.30;;
21754;SDS011;11039;50.028;19.938;2022-07-03T02:26:09;9.70;;;6.70;;
21754;SDS011;11039;50.028;19.938;2022-07-03T02:31:04;7.40;;;6.65;;
21754;SDS011;11039;50.028;19.938;2022-07-03T02:33:31;8.50;;;6.55;;
21754;SDS011;11039;50.028;19.938;2022-07-03T02:35:58;8.65;;;7.00;;
21754;SDS011;11039;50.028;19.938;2022-07-03T02:38:25;8.75;;;7.07;;
21754;SDS011;11039;50.028;19.938;2022-07-03T02:43:28;7.93;;;6.38;;
21754;SDS011;11039;50.028;19.938;2022-07-03T02:46:07;8.02;;;6.43;;
21754;SDS011;11039;50.028;19.938;2022-07-03T02:48:54;7.65;;;5.82;;
21754;SDS011;11039;50.028;19.938;2022-07-03T02:51:23;9.13;;;6.40;;
21754;SDS011;11039;50.028;19.938;2022-07-03T02:53:56;10.30;;;6.47;;
21754;SDS011;11039;50.028;19.938;2022-07-03T02:59:22;6.80;;;6.13;;
21754;SDS011;11039;50.028;19.938;2022-07-03T03:06:55;6.80;;;6.00;;
21754;SDS011;11039;50.028;19.938;2022-07-03T03:09:32;7.13;;;6.13;;
21754;SDS011;11039;50.028;19.938;2022-07-03T03:12:01;6.75;;;6.05;;
21754;SDS011;11039;50.028;19.938;2022-07-03T03:14:31;6.90;;;6.07;;
21754;SDS011;11039;50.028;19.938;2022-07-03T03:17:02;7.18;;;6.47;;
21754;SDS011;11039;50.028;19.938;2022-07-03T03:19:30;8.02;;;5.88;;
21754;SDS011;11039;50.028;19.938;2022-07-03T03:22:01;9.85;;;6.40;;
21754;SDS011;11039;50.028;19.938;2022-07-03T03:24:31;10.52;;;6.53;;
21754;SDS011;11039;50.028;19.938;2022-07-03T03:26:57;7.93;;;6.20;;
21754;SDS011;11039;50.028;19.938;2022-07-03T03:29:23;6.95;;;6.25;;
21754;SDS011;11039;50.028;19.938;2022-07-03T03:31:49;7.97;;;6.55;;
21754;SDS011;11039;50.028;19.938;2022-07-03T03:34:15;8.02;;;6.63;;
21754;SDS011;11039;50.028;19.938;2022-07-03T03:36:42;8.70;;;6.82;;
21754;SDS011;11039;50.028;19.938;2022-07-03T03:39:08;7.47;;;6.28;;
21754;SDS011;11039;50.028;19.938;2022-07-03T03:41:34;7.57;;;6.72;;
21754;SDS011;11039;50.028;19.938;2022-07-03T03:44:00;7.05;;;6.18;;
21754;SDS011;11039;50.028;19.938;2022-07-03T03:46:26;9.43;;;6.53;;
21754;SDS011;11039;50.028;19.938;2022-07-03T03:48:52;7.13;;;6.43;;
21754;SDS011;11039;50.028;19.938;2022-07-03T03:51:18;9.30;;;7.10;;
21754;SDS011;11039;50.028;19.938;2022-07-03T03:53:45;7.38;;;6.18;;
21754;SDS011;11039;50.028;19.938;2022-07-03T03:56:11;7.50;;;6.45;;
21754;SDS011;11039;50.028;19.938;2022-07-03T03:58:39;8.80;;;6.18;;
21754;SDS011;11039;50.028;19.938;2022-07-03T04:01:07;7.20;;;6.50;;
21754;SDS011;11039;50.028;19.938;2022-07-03T04:03:34;6.97;;;6.25;;
21754;SDS011;11039;50.028;19.938;2022-07-03T04:06:00;7.70;;;5.90;;
21754;SDS011;11039;50.028;19.938;2022-07-03T04:08:26;7.88;;;6.35;;
21754;SDS011;11039;50.028;19.938;2022-07-03T04:10:53;7.68;;;6.13;;
21754;SDS011;11039;50.028;19.938;2022-07-03T04:13:19;7.38;;;5.93;;
21754;SDS011;11039;50.028;19.938;2022-07-03T04:15:45;8.30;;;5.78;;
21754;SDS011;11039;50.028;19.938;2022-07-03T04:18:11;7.60;;;5.70;;
21754;SDS011;11039;50.028;19.938;2022-07-03T04:20:37;7.28;;;6.07;;
21754;SDS011;11039;50.028;19.938;2022-07-03T04:23:03;7.35;;;5.85;;
21754;SDS011;11039;50.028;19.938;2022-07-03T04:25:29;7.22;;;5.82;;
21754;SDS011;11039;50.028;19.938;2022-07-03T04:27:56;7.47;;;5.82;;
21754;SDS011;11039;50.028;19.938;2022-07-03T04:30:22;6.80;;;6.13;;
21754;SDS011;11039;50.028;19.938;2022-07-03T04:32:48;7.88;;;5.90;;
21754;SDS011;11039;50.028;19.938;2022-07-03T04:35:14;8.63;;;6.13;;
21754;SDS011;11039;50.028;19.938;2022-07-03T04:37:41;7.80;;;5.88;;
21754;SDS011;11039;50.028;19.938;2022-07-03T04:40:07;7.65;;;5.95;;
21754;SDS011;11039;50.028;19.938;2022-07-03T04:42:33;6.85;;;6.18;;
21754;SDS011;11039;50.028;19.938;2022-07-03T04:45:00;8.73;;;5.60;;
21754;SDS011;11039;50.028;19.938;2022-07-03T04:47:26;6.68;;;6.00;;
21754;SDS011;11039;50.028;19.938;2022-07-03T04:49:52;9.32;;;6.20;;
21754;SDS011;11039;50.028;19.938;2022-07-03T04:52:18;7.85;;;5.55;;
21754;SDS011;11039;50.028;19.938;2022-07-03T04:54:44;7.63;;;6.20;;
21754;SDS011;11039;50.028;19.938;2022-07-03T04:57:10;9.55;;;6.88;;
21754;SDS011;11039;50.028;19.938;2022-07-03T04:59:36;6.82;;;5.90;;
21754;SDS011;11039;50.028;19.938;2022-07-03T05:02:02;6.97;;;6.20;;
21754;SDS011;11039;50.028;19.938;2022-07-03T05:04:28;8.43;;;6.15;;
21754;SDS011;11039;50.028;19.938;2022-07-03T05:06:54;9.13;;;5.63;;
21754;SDS011;11039;50.028;19.938;2022-07-03T05:09:20;7.78;;;5.97;;
21754;SDS011;11039;50.028;19.938;2022-07-03T05:11:46;7.95;;;5.55;;
21754;SDS011;11039;50.028;19.938;2022-07-03T05:14:12;7.03;;;6.05;;
21754;SDS011;11039;50.028;19.938;2022-07-03T05:16:38;7.88;;;5.82;;
21754;SDS011;11039;50.028;19.938;2022-07-03T05:19:04;6.80;;;6.10;;
21754;SDS011;11039;50.028;19.938;2022-07-03T05:21:31;7.38;;;6.57;;
21754;SDS011;11039;50.028;19.938;2022-07-03T05:23:57;7.95;;;6.15;;
21754;SDS011;11039;50.028;19.938;2022-07-03T05:26:23;6.38;;;5.70;;
21754;SDS011;11039;50.028;19.938;2022-07-03T05:28:50;6.55;;;5.95;;
21754;SDS011;11039;50.028;19.938;2022-07-03T05:31:16;6.97;;;5.22;;
21754;SDS011;11039;50.028;19.938;2022-07-03T05:33:42;7.45;;;5.88;;
21754;SDS011;11039;50.028;19.938;2022-07-03T05:36:08;6.65;;;5.78;;
21754;SDS011;11039;50.028;19.938;2022-07-03T05:38:34;6.55;;;5.95;;
21754;SDS011;11039;50.028;19.938;2022-07-03T05:41:19;8.65;;;6.47;;
21754;SDS011;11039;50.028;19.938;2022-07-03T05:43:45;7.00;;;6.10;;
21754;SDS011;11039;50.028;19.938;2022-07-03T05:46:11;6.80;;;6.20;;
21754;SDS011;11039;50.028;19.938;2022-07-03T05:48:37;6.40;;;5.25;;
21754;SDS011;11039;50.028;19.938;2022-07-03T05:51:03;6.93;;;5.35;;
21754;SDS011;11039;50.028;19.938;2022-07-03T05:53:29;6.18;;;5.65;;
21754;SDS011;11039;50.028;19.938;2022-07-03T05:55:55;7.90;;;5.88;;
21754;SDS011;11039;50.028;19.938;2022-07-03T05:58:21;6.38;;;5.38;;
21754;SDS011;11039;50.028;19.938;2022-07-03T06:00:47;7.03;;;5.57;;
21754;SDS011;11039;50.028;19.938;2022-07-03T06:03:13;6.20;;;5.60;;
21754;SDS011;11039;50.028;19.938;2022-07-03T06:05:39;6.88;;;5.57;;
21754;SDS011;11039;50.028;19.938;2022-07-03T06:08:05;6.78;;;6.05;;
21754;SDS011;11039;50.028;19.938;2022-07-03T06:10:32;7.60;;;5.70;;
21754;SDS011;11039;50.028;19.938;2022-07-03T06:12:58;7.30;;;5.70;;
21754;SDS011;11039;50.028;19.938;2022-07-03T06:15:24;8.77;;;5.90;;
21754;SDS011;11039;50.028;19.938;2022-07-03T06:17:50;8.05;;;6.50;;
21754;SDS011;11039;50.028;19.938;2022-07-03T06:20:16;7.65;;;6.70;;
21754;SDS011;11039;50.028;19.938;2022-07-03T06:22:43;6.72;;;6.10;;
21754;SDS011;11039;50.028;19.938;2022-07-03T06:25:09;6.65;;;5.68;;
21754;SDS011;11039;50.028;19.938;2022-07-03T06:27:35;6.50;;;5.90;;
21754;SDS011;11039;50.028;19.938;2022-07-03T06:30:01;6.20;;;5.60;;
21754;SDS011;11039;50.028;19.938;2022-07-03T06:32:27;6.95;;;5.60;;
21754;SDS011;11039;50.028;19.938;2022-07-03T06:34:53;6.07;;;5.57;;
21754;SDS011;11039;50.028;19.938;2022-07-03T06:37:20;6.28;;;5.50;;
21754;SDS011;11039;50.028;19.938;2022-07-03T06:39:46;6.00;;;5.45;;
21754;SDS011;11039;50.028;19.938;2022-07-03T06:42:12;5.80;;;5.30;;
21754;SDS011;11039;50.028;19.938;2022-07-03T06:44:38;6.25;;;5.25;;
21754;SDS011;11039;50.028;19.938;2022-07-03T06:47:05;5.55;;;5.03;;
21754;SDS011;11039;50.028;19.938;2022-07-03T06:49:32;5.65;;;5.00;;
21754;SDS011;11039;50.028;19.938;2022-07-03T06:51:58;7.10;;;5.97;;
21754;SDS011;11039;50.028;19.938;2022-07-03T06:54:24;6.55;;;5.95;;
21754;SDS011;11039;50.028;19.938;2022-07-03T06:56:50;6.28;;;5.20;;
21754;SDS011;11039;50.028;19.938;2022-07-03T06:59:16;5.72;;;5.25;;
21754;SDS011;11039;50.028;19.938;2022-07-03T07:01:42;6.78;;;5.13;;
21754;SDS011;11039;50.028;19.938;2022-07-03T07:04:08;5.80;;;5.30;;
21754;SDS011;11039;50.028;19.938;2022-07-03T07:06:35;5.60;;;5.10;;
21754;SDS011;11039;50.028;19.938;2022-07-03T07:09:01;6.47;;;4.88;;
21754;SDS011;11039;50.028;19.938;2022-07-03T07:11:27;5.20;;;4.70;;
21754;SDS011;11039;50.028;19.938;2022-07-03T07:13:53;7.43;;;4.70;;
21754;SDS011;11039;50.028;19.938;2022-07-03T07:16:19;5.32;;;4.53;;
21754;SDS011;11039;50.028;19.938;2022-07-03T07:18:45;5.80;;;4.72;;
21754;SDS011;11039;50.028;19.938;2022-07-03T07:21:11;7.50;;;4.65;;
21754;SDS011;11039;50.028;19.938;2022-07-03T07:23:37;4.90;;;4.40;;
21754;SDS011;11039;50.028;19.938;2022-07-03T07:26:03;6.47;;;4.63;;
21754;SDS011;11039;50.028;19.938;2022-07-03T07:28:30;6.85;;;4.80;;
21754;SDS011;11039;50.028;19.938;2022-07-03T07:30:58;4.90;;;4.30;;
21754;SDS011;11039;50.028;19.938;2022-07-03T07:33:24;5.15;;;4.53;;
21754;SDS011;11039;50.028;19.938;2022-07-03T07:35:50;6.30;;;4.57;;
21754;SDS011;11039;50.028;19.938;2022-07-03T07:38:16;4.40;;;4.00;;
21754;SDS011;11039;50.028;19.938;2022-07-03T07:40:42;4.60;;;4.10;;
21754;SDS011;11039;50.028;19.938;2022-07-03T07:43:09;6.70;;;4.45;;
21754;SDS011;11039;50.028;19.938;2022-07-03T07:45:35;5.90;;;4.13;;
21754;SDS011;11039;50.028;19.938;2022-07-03T07:48:01;5.10;;;4.20;;
21754;SDS011;11039;50.028;19.938;2022-07-03T07:50:27;4.20;;;3.80;;
21754;SDS011;11039;50.028;19.938;2022-07-03T07:52:53;4.57;;;4.18;;
21754;SDS011;11039;50.028;19.938;2022-07-03T07:55:19;4.07;;;3.78;;
21754;SDS011;11039;50.028;19.938;2022-07-03T07:57:46;4.18;;;3.78;;
21754;SDS011;11039;50.028;19.938;2022-07-03T08:00:13;4.25;;;3.85;;
21754;SDS011;11039;50.028;19.938;2022-07-03T08:02:40;4.15;;;3.53;;
21754;SDS011;11039;50.028;19.938;2022-07-03T08:05:24;4.53;;;4.05;;
21754;SDS011;11039;50.028;19.938;2022-07-03T08:08:04;10.60;;;3.58;;
21754;SDS011;11039;50.028;19.938;2022-07-03T08:10:34;4.30;;;3.90;;
21754;SDS011;11039;50.028;19.938;2022-07-03T08:13:00;4.72;;;3.63;;
21754;SDS011;11039;50.028;19.938;2022-07-03T08:15:26;4.20;;;3.88;;
21754;SDS011;11039;50.028;19.938;2022-07-03T08:17:52;4.40;;;3.40;;
21754;SDS011;11039;50.028;19.938;2022-07-03T08:20:18;3.70;;;3.40;;
21754;SDS011;11039;50.028;19.938;2022-07-03T08:22:44;3.88;;;3.58;;
21754;SDS011;11039;50.028;19.938;2022-07-03T08:25:10;4.25;;;3.35;;
21754;SDS011;11039;50.028;19.938;2022-07-03T08:27:36;3.78;;;3.42;;
21754;SDS011;11039;50.028;19.938;2022-07-03T08:30:02;3.80;;;3.38;;
21754;SDS011;11039;50.028;19.938;2022-07-03T08:32:28;4.18;;;3.78;;
21754;SDS011;11039;50.028;19.938;2022-07-03T08:34:54;3.90;;;3.60;;
21754;SDS011;11039;50.028;19.938;2022-07-03T08:37:20;3.60;;;3.30;;
21754;SDS011;11039;50.028;19.938;2022-07-03T08:39:46;5.43;;;3.78;;
21754;SDS011;11039;50.028;19.938;2022-07-03T08:42:12;3.95;;;3.55;;
21754;SDS011;11039;50.028;19.938;2022-07-03T08:44:39;4.18;;;3.75;;
21754;SDS011;11039;50.028;19.938;2022-07-03T08:47:06;3.80;;;3.40;;
21754;SDS011;11039;50.028;19.938;2022-07-03T08:49:33;4.28;;;3.88;;
21754;SDS011;11039;50.028;19.938;2022-07-03T08:52:00;9.93;;;5.25;;
21754;SDS011;11039;50.028;19.938;2022-07-03T08:54:26;9.65;;;5.65;;
21754;SDS011;11039;50.028;19.938;2022-07-03T08:56:52;12.77;;;6.38;;
21754;SDS011;11039;50.028;19.938;2022-07-03T08:59:18;12.88;;;6.65;;
21754;SDS011;11039;50.028;19.938;2022-07-03T09:01:46;11.55;;;6.55;;
21754;SDS011;11039;50.028;19.938;2022-07-03T09:04:12;13.50;;;6.13;;
21754;SDS011;11039;50.028;19.938;2022-07-03T09:06:39;9.88;;;5.80;;
21754;SDS011;11039;50.028;19.938;2022-07-03T09:09:06;7.70;;;5.60;;
21754;SDS011;11039;50.028;19.938;2022-07-03T09:11:33;7.93;;;5.40;;
21754;SDS011;11039;50.028;19.938;2022-07-03T09:13:59;8.73;;;5.18;;
21754;SDS011;11039;50.028;19.938;2022-07-03T09:16:25;6.97;;;5.10;;
21754;SDS011;11039;50.028;19.938;2022-07-03T09:18:51;5.43;;;4.90;;
21754;SDS011;11039;50.028;19.938;2022-07-03T09:21:17;6.93;;;4.70;;
21754;SDS011;11039;50.028;19.938;2022-07-03T09:23:43;9.07;;;5.20;;
21754;SDS011;11039;50.028;19.938;2022-07-03T09:26:14;8.45;;;5.00;;
21754;SDS011;11039;50.028;19.938;2022-07-03T09:28:44;5.25;;;4.47;;
21754;SDS011;11039;50.028;19.938;2022-07-03T09:31:12;6.15;;;4.88;;
21754;SDS011;11039;50.028;19.938;2022-07-03T09:33:49;9.18;;;4.82;;
21754;SDS011;11039;50.028;19.938;2022-07-03T09:36:15;7.82;;;4.70;;
21754;SDS011;11039;50.028;19.938;2022-07-03T09:38:44;8.65;;;4.82;;
21754;SDS011;11039;50.028;19.938;2022-07-03T09:41:11;6.28;;;4.65;;
21754;SDS011;11039;50.028;19.938;2022-07-03T09:43:40;6.38;;;4.38;;
21754;SDS011;11039;50.028;19.938;2022-07-03T09:46:07;5.60;;;4.38;;
21754;SDS011;11039;50.028;19.938;2022-07-03T09:48:35;5.60;;;4.95;;
21754;SDS011;11039;50.028;19.938;2022-07-03T09:53:50;5.82;;;4.50;;
21754;SDS011;11039;50.028;19.938;2022-07-03T09:56:17;5.50;;;4.50;;
21754;SDS011;11039;50.028;19.938;2022-07-03T10:01:28;9.52;;;4.65;;
21754;SDS011;11039;50.028;19.938;2022-07-03T10:03:54;8.80;;;4.90;;
21754;SDS011;11039;50.028;19.938;2022-07-03T10:06:44;6.25;;;5.18;;
21754;SDS011;11039;50.028;19.938;2022-07-03T10:09:10;6.85;;;5.47;;
21754;SDS011;11039;50.028;19.938;2022-07-03T10:11:37;5.05;;;4.55;;
21754;SDS011;11039;50.028;19.938;2022-07-03T10:14:03;9.20;;;5.45;;
21754;SDS011;11039;50.028;19.938;2022-07-03T10:16:30;6.50;;;5.00;;
21754;SDS011;11039;50.028;19.938;2022-07-03T10:18:56;7.70;;;5.30;;
21754;SDS011;11039;50.028;19.938;2022-07-03T10:21:22;5.43;;;4.88;;
21754;SDS011;11039;50.028;19.938;2022-07-03T10:23:48;5.40;;;4.90;;
21754;SDS011;11039;50.028;19.938;2022-07-03T10:26:15;9.88;;;5.25;;
21754;SDS011;11039;50.028;19.938;2022-07-03T10:28:41;6.05;;;5.40;;
21754;SDS011;11039;50.028;19.938;2022-07-03T10:31:07;5.50;;;5.00;;
21754;SDS011;11039;50.028;19.938;2022-07-03T10:33:34;8.65;;;5.47;;
21754;SDS011;11039;50.028;19.938;2022-07-03T10:36:02;5.93;;;5.43;;
21754;SDS011;11039;50.028;19.938;2022-07-03T10:38:39;6.10;;;5.50;;
21754;SDS011;11039;50.028;19.938;2022-07-03T10:41:06;6.53;;;5.28;;
21754;SDS011;11039;50.028;19.938;2022-07-03T10:43:52;6.35;;;5.25;;
21754;SDS011;11039;50.028;19.938;2022-07-03T10:46:37;6.13;;;5.53;;
21754;SDS011;11039;50.028;19.938;2022-07-03T10:49:04;5.85;;;5.25;;
21754;SDS011;11039;50.028;19.938;2022-07-03T11:07:40;6.22;;;5.35;;
21754;SDS011;11039;50.028;19.938;2022-07-03T11:18:08;13.18;;;6.35;;
21754;SDS011;11039;50.028;19.938;2022-07-03T11:25:50;7.38;;;5.90;;
21754;SDS011;11039;50.028;19.938;2022-07-03T11:38:43;6.55;;;5.50;;
21754;SDS011;11039;50.028;19.938;2022-07-03T11:41:09;7.00;;;6.30;;
21754;SDS011;11039;50.028;19.938;2022-07-03T11:43:36;6.60;;;6.00;;
21754;SDS011;11039;50.028;19.938;2022-07-03T11:46:03;6.55;;;5.95;;
21754;SDS011;11039;50.028;19.938;2022-07-03T11:48:30;6.25;;;5.65;;
21754;SDS011;11039;50.028;19.938;2022-07-03T11:51:00;7.43;;;6.35;;
21754;SDS011;11039;50.028;19.938;2022-07-03T11:53:30;7.25;;;6.22;;
21754;SDS011;11039;50.028;19.938;2022-07-03T11:56:03;7.70;;;6.38;;
21754;SDS011;11039;50.028;19.938;2022-07-03T12:01:09;6.90;;;6.20;;
21754;SDS011;11039;50.028;19.938;2022-07-03T12:03:35;6.70;;;6.03;;
21754;SDS011;11039;50.028;19.938;2022-07-03T12:06:01;6.40;;;5.80;;
21754;SDS011;11039;50.028;19.938;2022-07-03T12:08:28;6.60;;;5.90;;
21754;SDS011;11039;50.028;19.938;2022-07-03T12:11:03;6.28;;;5.68;;
21754;SDS011;11039;50.028;19.938;2022-07-03T12:13:29;6.10;;;5.50;;
21754;SDS011;11039;50.028;19.938;2022-07-03T12:16:11;6.93;;;5.63;;
21754;SDS011;11039;50.028;19.938;2022-07-03T12:18:44;6.32;;;5.72;;
21754;SDS011;11039;50.028;19.938;2022-07-03T12:21:11;6.45;;;5.80;;
21754;SDS011;11039;50.028;19.938;2022-07-03T12:23:44;6.38;;;5.78;;
21754;SDS011;11039;50.028;19.938;2022-07-03T12:26:11;6.20;;;5.60;;
21754;SDS011;11039;50.028;19.938;2022-07-03T12:28:37;6.65;;;6.05;;
21754;SDS011;11039;50.028;19.938;2022-07-03T12:31:03;6.55;;;5.85;;
21754;SDS011;11039;50.028;19.938;2022-07-03T12:33:30;5.90;;;5.40;;
21754;SDS011;11039;50.028;19.938;2022-07-03T12:36:07;6.05;;;5.55;;
21754;SDS011;11039;50.028;19.938;2022-07-03T12:38:33;6.68;;;6.07;;
21754;SDS011;11039;50.028;19.938;2022-07-03T12:41:08;6.78;;;6.10;;
21754;SDS011;11039;50.028;19.938;2022-07-03T12:43:40;6.88;;;6.18;;
21754;SDS011;11039;50.028;19.938;2022-07-03T12:46:22;6.57;;;5.97;;
21754;SDS011;11039;50.028;19.938;2022-07-03T12:48:52;8.05;;;5.93;;
21754;SDS011;11039;50.028;19.938;2022-07-03T12:54:07;6.65;;;6.05;;
21754;SDS011;11039;50.028;19.938;2022-07-03T12:56:33;6.82;;;6.13;;
21754;SDS011;11039;50.028;19.938;2022-07-03T12:58:59;6.68;;;6.07;;
21754;SDS011;11039;50.028;19.938;2022-07-03T13:02:05;6.68;;;5.90;;
21754;SDS011;11039;50.028;19.938;2022-07-03T13:04:31;6.90;;;5.72;;
21754;SDS011;11039;50.028;19.938;2022-07-03T13:07:15;6.18;;;5.63;;
21754;SDS011;11039;50.028;19.938;2022-07-03T13:09:41;6.47;;;5.70;;
21754;SDS011;11039;50.028;19.938;2022-07-03T13:12:09;6.60;;;6.00;;
21754;SDS011;11039;50.028;19.938;2022-07-03T13:14:56;5.93;;;5.43;;
21754;SDS011;11039;50.028;19.938;2022-07-03T13:17:22;7.03;;;6.28;;
21754;SDS011;11039;50.028;19.938;2022-07-03T13:19:48;6.70;;;5.95;;
21754;SDS011;11039;50.028;19.938;2022-07-03T13:22:15;7.18;;;6.10;;
21754;SDS011;11039;50.028;19.938;2022-07-03T13:24:40;6.82;;;6.05;;
21754;SDS011;11039;50.028;19.938;2022-07-03T13:27:06;6.50;;;5.90;;
21754;SDS011;11039;50.028;19.938;2022-07-03T13:29:34;7.05;;;6.25;;
21754;SDS011;11039;50.028;19.938;2022-07-03T13:32:00;7.45;;;6.22;;
21754;SDS011;11039;50.028;19.938;2022-07-03T13:34:26;6.97;;;6.28;;
21754;SDS011;11039;50.028;19.938;2022-07-03T13:36:52;7.50;;;6.35;;
21754;SDS011;11039;50.028;19.938;2022-07-03T13:39:18;11.88;;;6.20;;
21754;SDS011;11039;50.028;19.938;2022-07-03T13:41:44;8.32;;;6.38;;
21754;SDS011;11039;50.028;19.938;2022-07-03T13:44:10;6.85;;;5.97;;
21754;SDS011;11039;50.028;19.938;2022-07-03T13:46:36;6.90;;;6.30;;
21754;SDS011;11039;50.028;19.938;2022-07-03T13:49:02;7.78;;;6.10;;
21754;SDS011;11039;50.028;19.938;2022-07-03T13:51:28;7.53;;;6.72;;
21754;SDS011;11039;50.028;19.938;2022-07-03T13:53:54;6.97;;;6.28;;
21754;SDS011;11039;50.028;19.938;2022-07-03T13:56:20;7.35;;;6.60;;
21754;SDS011;11039;50.028;19.938;2022-07-03T13:58:46;7.63;;;6.30;;
21754;SDS011;11039;50.028;19.938;2022-07-03T14:01:12;8.52;;;6.55;;
21754;SDS011;11039;50.028;19.938;2022-07-03T14:03:38;6.90;;;6.20;;
21754;SDS011;11039;50.028;19.938;2022-07-03T14:06:04;6.30;;;5.80;;
21754;SDS011;11039;50.028;19.938;2022-07-03T14:08:30;6.88;;;6.18;;
21754;SDS011;11039;50.028;19.938;2022-07-03T14:10:57;6.80;;;5.70;;
21754;SDS011;11039;50.028;19.938;2022-07-03T14:13:23;7.32;;;6.15;;
21754;SDS011;11039;50.028;19.938;2022-07-03T14:15:49;9.60;;;6.53;;
21754;SDS011;11039;50.028;19.938;2022-07-03T14:18:15;8.32;;;6.60;;
21754;SDS011;11039;50.028;19.938;2022-07-03T14:20:41;6.70;;;6.10;;
21754;SDS011;11039;50.028;19.938;2022-07-03T14:23:07;8.85;;;6.57;;
21754;SDS011;11039;50.028;19.938;2022-07-03T14:25:33;8.00;;;6.30;;
21754;SDS011;11039;50.028;19.938;2022-07-03T14:27:59;7.20;;;6.28;;
21754;SDS011;11039;50.028;19.938;2022-07-03T14:30:57;8.15;;;6.20;;
21754;SDS011;11039;50.028;19.938;2022-07-03T14:33:42;7.65;;;6.38;;
21754;SDS011;11039;50.028;19.938;2022-07-03T14:36:08;6.85;;;6.15;;
21754;SDS011;11039;50.028;19.938;2022-07-03T14:38:34;7.03;;;6.20;;
21754;SDS011;11039;50.028;19.938;2022-07-03T14:41:00;6.55;;;5.85;;
21754;SDS011;11039;50.028;19.938;2022-07-03T14:43:26;9.73;;;6.07;;
21754;SDS011;11039;50.028;19.938;2022-07-03T14:45:52;7.85;;;5.72;;
21754;SDS011;11039;50.028;19.938;2022-07-03T14:48:18;6.43;;;5.82;;
21754;SDS011;11039;50.028;19.938;2022-07-03T14:50:45;7.88;;;5.88;;
21754;SDS011;11039;50.028;19.938;2022-07-03T14:53:11;5.88;;;5.38;;
21754;SDS011;11039;50.028;19.938;2022-07-03T14:55:41;8.45;;;5.90;;
21754;SDS011;11039;50.028;19.938;2022-07-03T14:58:18;6.10;;;5.50;;
21754;SDS011;11039;50.028;19.938;2022-07-03T15:00:50;7.13;;;5.60;;
21754;SDS011;11039;50.028;19.938;2022-07-03T15:03:37;7.68;;;5.80;;
21754;SDS011;11039;50.028;19.938;2022-07-03T15:06:07;6.07;;;5.47;;
21754;SDS011;11039;50.028;19.938;2022-07-03T15:08:38;6.68;;;5.60;;
21754;SDS011;11039;50.028;19.938;2022-07-03T15:11:07;6.07;;;5.47;;
21754;SDS011;11039;50.028;19.938;2022-07-03T15:13:33;6.35;;;5.75;;
21754;SDS011;11039;50.028;19.938;2022-07-03T15:16:00;6.25;;;5.65;;
21754;SDS011;11039;50.028;19.938;2022-07-03T15:18:26;6.60;;;5.90;;
21754;SDS011;11039;50.028;19.938;2022-07-03T15:20:53;6.82;;;6.22;;
21754;SDS011;11039;50.028;19.938;2022-07-03T15:23:19;6.15;;;5.55;;
21754;SDS011;11039;50.028;19.938;2022-07-03T15:25:46;7.90;;;5.70;;
21754;SDS011;11039;50.028;19.938;2022-07-03T15:28:12;6.53;;;5.90;;
21754;SDS011;11039;50.028;19.938;2022-07-03T15:30:45;5.72;;;5.22;;
21754;SDS011;11039;50.028;19.938;2022-07-03T15:33:11;5.57;;;5.07;;
21754;SDS011;11039;50.028;19.938;2022-07-03T15:35:38;6.35;;;5.75;;
21754;SDS011;11039;50.028;19.938;2022-07-03T15:38:11;6.82;;;6.10;;
21754;SDS011;11039;50.028;19.938;2022-07-03T15:40:45;6.60;;;5.90;;
21754;SDS011;11039;50.028;19.938;2022-07-03T15:46:06;6.13;;;5.57;;
21754;SDS011;11039;50.028;19.938;2022-07-03T15:53:31;6.05;;;5.45;;
21754;SDS011;11039;50.028;19.938;2022-07-03T15:56:02;7.43;;;5.82;;
21754;SDS011;11039;50.028;19.938;2022-07-03T15:58:29;6.55;;;5.65;;
21754;SDS011;11039;50.028;19.938;2022-07-03T16:00:57;7.88;;;5.75;;
21754;SDS011;11039;50.028;19.938;2022-07-03T16:06:27;5.45;;;4.95;;
21754;SDS011;11039;50.028;19.938;2022-07-03T16:08:53;6.28;;;5.68;;